createdAt,value
2024-03-13T00:00:54.319Z,99702.53
2024-03-13T00:03:57.146Z,99686.09
2024-03-13T00:06:58.618Z,99689.00
2024-03-13T00:10:00.098Z,99694.75
2024-03-13T00:13:01.538Z,99700.34
2024-03-13T00:16:03.117Z,99712.44
2024-03-13T00:19:05.856Z,99700.53
2024-03-13T00:22:07.369Z,99702.53
2024-03-13T00:25:09.007Z,99690.16
2024-03-13T00:28:10.402Z,99673.88
2024-03-13T00:31:12.866Z,99671.16
2024-03-13T00:34:15.650Z,99665.31
2024-03-13T00:37:17.208Z,99663.06
2024-03-13T00:40:18.785Z,99673.78
2024-03-13T00:43:20.271Z,99684.56
2024-03-13T00:46:22.728Z,99674.16
2024-03-13T00:49:25.603Z,99668.50
2024-03-13T00:52:27.114Z,99673.81
2024-03-13T00:55:28.760Z,99674.16
2024-03-13T00:58:30.340Z,99680.19
2024-03-13T01:01:33.077Z,99672.00
2024-03-13T01:04:35.967Z,99661.06
2024-03-13T01:07:37.361Z,99648.56
2024-03-13T01:10:38.945Z,99662.03
2024-03-13T01:13:40.365Z,99644.97
2024-03-13T01:16:41.781Z,99642.19
2024-03-13T01:19:44.512Z,99636.31
2024-03-13T01:22:45.991Z,99631.22
2024-03-13T01:25:47.423Z,99628.25
2024-03-13T01:28:49.892Z,99655.06
2024-03-13T01:31:51.327Z,99664.94
2024-03-13T01:34:54.066Z,99663.59
2024-03-13T01:37:55.503Z,99674.66
2024-03-13T01:40:56.946Z,99699.13
2024-03-13T01:43:58.326Z,99711.69
2024-03-13T01:47:00.744Z,99709.41
2024-03-13T01:50:04.816Z,99711.72
2024-03-13T01:53:06.487Z,99706.69
2024-03-13T01:56:08.390Z,99690.97
2024-03-13T01:59:09.868Z,99678.72
2024-03-13T02:02:11.408Z,99661.88
2024-03-13T02:05:14.305Z,99644.25
2024-03-13T02:08:16.525Z,99638.50
2024-03-13T02:11:18.034Z,99631.34
2024-03-13T02:14:19.522Z,99622.69
2024-03-13T02:17:20.963Z,99625.72
2024-03-13T02:20:24.789Z,99603.91
2024-03-13T02:23:26.277Z,99608.03
2024-03-13T02:26:27.806Z,99607.25
2024-03-13T02:29:29.332Z,99587.16
2024-03-13T02:32:30.902Z,99592.03
2024-03-13T02:35:32.351Z,99578.25
2024-03-13T02:38:33.914Z,99574.91
2024-03-13T02:41:35.385Z,99577.16
2024-03-13T02:44:36.949Z,99569.63
2024-03-13T02:47:38.464Z,99567.41
2024-03-13T02:50:40.138Z,99565.28
2024-03-13T02:53:41.618Z,99559.34
2024-03-13T02:56:45.961Z,99542.75
2024-03-13T02:59:47.396Z,99545.72
2024-03-13T03:02:48.950Z,99533.38
2024-03-13T03:05:50.469Z,99535.53
2024-03-13T03:08:52.020Z,99528.78
2024-03-13T03:11:53.622Z,99520.66
2024-03-13T03:14:55.085Z,99516.78
2024-03-13T03:17:56.774Z,99520.28
2024-03-13T03:20:58.435Z,99537.25
2024-03-13T03:24:02.377Z,99539.91
2024-03-13T03:27:03.952Z,99543.56
2024-03-13T03:30:05.850Z,99550.56
2024-03-13T03:33:07.541Z,99548.13
2024-03-13T03:36:09.445Z,99539.72
2024-03-13T03:39:10.985Z,99542.31
2024-03-13T03:42:12.479Z,99536.81
2024-03-13T03:45:14.074Z,99528.41
2024-03-13T03:48:15.573Z,99533.97
2024-03-13T03:51:17.356Z,99513.28
2024-03-13T03:54:18.993Z,99527.00
2024-03-13T03:57:20.477Z,99503.56
2024-03-13T04:00:21.952Z,99490.22
2024-03-13T04:03:23.394Z,99493.94
2024-03-13T04:06:25.870Z,99504.25
2024-03-13T04:09:27.367Z,99511.56
2024-03-13T04:12:29.227Z,99507.75
2024-03-13T04:15:30.804Z,99505.63
2024-03-13T04:18:32.358Z,99503.81
2024-03-13T04:21:33.992Z,99497.31
2024-03-13T04:24:35.496Z,99500.34
2024-03-13T04:27:37.044Z,99487.34
2024-03-13T04:30:38.503Z,99477.53
2024-03-13T04:33:40.167Z,99491.34
2024-03-13T04:36:41.780Z,99490.50
2024-03-13T04:39:43.288Z,99488.25
2024-03-13T04:42:44.932Z,99493.47
2024-03-13T04:45:46.428Z,99490.25
2024-03-13T04:48:47.960Z,99479.38
2024-03-13T04:51:49.440Z,99489.88
2024-03-13T04:54:55.387Z,99478.31
2024-03-13T04:57:56.991Z,99479.41
2024-03-13T05:00:58.633Z,99470.78
2024-03-13T05:04:00.368Z,99471.44
2024-03-13T05:07:02.046Z,99467.84
2024-03-13T05:10:10.311Z,99472.88
2024-03-13T05:13:11.822Z,99473.28
2024-03-13T05:16:13.367Z,99475.47
2024-03-13T05:19:14.985Z,99473.16
2024-03-13T05:22:16.718Z,99482.50
2024-03-13T05:25:21.911Z,99487.59
2024-03-13T05:28:23.396Z,99478.78
2024-03-13T05:31:24.987Z,99458.81
2024-03-13T05:34:26.589Z,99452.09
2024-03-13T05:37:36.801Z,99448.75
2024-03-13T05:40:38.783Z,99453.91
2024-03-13T05:43:40.388Z,99466.66
2024-03-13T05:46:42.982Z,99471.78
2024-03-13T05:49:44.454Z,99472.81
2024-03-13T05:52:48.965Z,99467.53
2024-03-13T05:55:53.628Z,99461.53
2024-03-13T05:58:55.147Z,99469.41
2024-03-13T06:01:56.765Z,99464.41
2024-03-13T06:04:58.313Z,99462.59
2024-03-13T06:08:03.390Z,99460.38
2024-03-13T06:11:11.414Z,99455.38
2024-03-13T06:14:13.008Z,99441.69
2024-03-13T06:17:14.465Z,99439.88
2024-03-13T06:20:16.063Z,99431.78
2024-03-13T06:23:21.831Z,99443.66
2024-03-13T06:26:23.469Z,99433.03
2024-03-13T06:29:24.975Z,99442.53
2024-03-13T06:32:26.503Z,99423.81
2024-03-13T06:35:28.267Z,99424.66
2024-03-13T06:38:32.767Z,99427.97
2024-03-13T06:41:37.670Z,99432.97
2024-03-13T06:44:39.227Z,99433.38
2024-03-13T06:47:40.664Z,99421.91
2024-03-13T06:50:42.317Z,99406.25
2024-03-13T06:53:47.325Z,99395.63
2024-03-13T06:56:56.342Z,99381.19
2024-03-13T06:59:59.939Z,99375.88
2024-03-13T07:03:02.901Z,99362.31
2024-03-13T07:06:04.460Z,99359.06
2024-03-13T07:09:13.485Z,99350.13
2024-03-13T07:12:14.969Z,99347.47
2024-03-13T07:15:16.447Z,99343.72
2024-03-13T07:18:18.053Z,99338.34
2024-03-13T07:21:19.521Z,99333.63
2024-03-13T07:24:27.468Z,99320.38
2024-03-13T07:27:28.994Z,99326.97
2024-03-13T07:30:30.598Z,99308.44
2024-03-13T07:33:32.116Z,99304.66
2024-03-13T07:36:33.611Z,99297.19
2024-03-13T07:39:42.000Z,99301.50
2024-03-13T07:42:43.465Z,99295.69
2024-03-13T07:45:45.014Z,99282.88
2024-03-13T07:48:46.470Z,99283.19
2024-03-13T07:51:47.976Z,99280.84
2024-03-13T07:54:52.842Z,99276.44
2024-03-13T07:57:54.502Z,99269.63
2024-03-13T08:00:56.165Z,99256.69
2024-03-13T08:03:58.745Z,99255.38
2024-03-13T09:06:47.993Z,99125.22
2024-03-13T09:09:49.663Z,99144.69
2024-03-13T09:12:51.507Z,99134.50
2024-03-13T09:15:53.130Z,99133.75
2024-03-13T09:18:54.715Z,99112.59
2024-03-13T09:21:57.303Z,99092.47
2024-03-13T09:24:58.863Z,99127.88
2024-03-13T09:28:00.435Z,99112.16
2024-03-13T09:31:02.103Z,99104.84
2024-03-13T09:34:03.637Z,99138.72
2024-03-13T09:37:05.235Z,99108.84
2024-03-13T09:40:07.018Z,99098.00
2024-03-13T09:43:08.593Z,99116.78
2024-03-13T09:46:10.169Z,99103.25
2024-03-13T09:49:12.658Z,99114.00
2024-03-13T09:52:14.349Z,99106.78
2024-03-13T09:55:16.414Z,99075.44
2024-03-13T09:58:18.023Z,99086.91
2024-03-13T10:01:19.539Z,99086.44
2024-03-13T10:04:21.008Z,99098.44
2024-03-13T10:07:22.921Z,99075.69
2024-03-13T10:10:24.444Z,99105.34
2024-03-13T10:13:25.966Z,99086.25
2024-03-13T10:16:28.793Z,99133.88
2024-03-13T10:19:30.344Z,99138.59
2024-03-13T10:22:32.021Z,99144.31
2024-03-13T10:25:33.493Z,99145.84
2024-03-13T10:28:35.064Z,99141.13
2024-03-13T10:31:36.527Z,99123.94
2024-03-13T10:34:38.041Z,99109.56
2024-03-13T10:37:39.541Z,99127.06
2024-03-13T10:40:41.102Z,99137.13
2024-03-13T10:43:42.658Z,99145.78
2024-03-13T10:46:44.200Z,99158.53
2024-03-13T10:49:45.723Z,99188.16
2024-03-13T10:52:47.315Z,99206.72
2024-03-13T10:55:48.855Z,99161.47
2024-03-13T10:58:50.364Z,99192.31
2024-03-13T11:01:51.919Z,99155.31
2024-03-13T11:04:53.509Z,99140.75
2024-03-13T11:07:56.218Z,99112.53
2024-03-13T11:11:07.014Z,99123.78
2024-03-13T11:14:15.775Z,99172.56
2024-03-13T11:17:17.339Z,99163.69
2024-03-13T11:20:19.598Z,99200.56
2024-03-13T11:23:21.128Z,99215.63
2024-03-13T11:26:22.638Z,99246.72
2024-03-13T11:29:24.325Z,99233.63
2024-03-13T11:32:25.852Z,99249.75
2024-03-13T11:35:28.433Z,99209.34
2024-03-13T11:38:30.073Z,99227.06
2024-03-13T11:41:34.194Z,99209.94
2024-03-13T11:44:36.770Z,99162.31
2024-03-13T11:47:40.355Z,99221.47
2024-03-13T11:50:56.817Z,99209.72
2024-03-13T11:54:05.781Z,99226.63
2024-03-13T11:57:07.427Z,99232.94
2024-03-13T12:00:09.374Z,99214.09
2024-03-13T12:03:14.466Z,99195.41
2024-03-13T12:06:34.430Z,99175.63
2024-03-13T12:09:35.941Z,99163.78
2024-03-13T12:12:37.476Z,99172.44
2024-03-13T12:15:38.969Z,99133.34
2024-03-13T12:18:44.558Z,99162.66
2024-03-13T12:21:46.229Z,99221.91
2024-03-13T12:24:47.738Z,99237.59
2024-03-13T12:27:49.312Z,99235.66
2024-03-13T12:30:50.845Z,99234.28
2024-03-13T12:33:52.864Z,99244.16
2024-03-13T12:36:54.427Z,99260.03
2024-03-13T12:39:55.945Z,99280.66
2024-03-13T12:42:58.076Z,99285.78
2024-03-13T12:46:00.624Z,99290.09
2024-03-13T12:49:02.144Z,99299.22
2024-03-13T12:52:04.540Z,99299.22
2024-03-13T12:55:06.213Z,99286.19
2024-03-13T12:58:07.779Z,99300.09
2024-03-13T13:01:09.337Z,99283.84
2024-03-13T13:04:12.072Z,99316.97
2024-03-13T13:07:13.534Z,99315.78
2024-03-13T13:10:15.152Z,99292.88
2024-03-13T13:13:16.825Z,99307.72
2024-03-13T13:16:18.608Z,99315.34
2024-03-13T13:19:21.111Z,99320.69
2024-03-13T13:22:22.633Z,99325.44
2024-03-13T13:25:24.325Z,99346.13
2024-03-13T13:28:26.069Z,99354.50
2024-03-13T13:31:27.518Z,99363.63
2024-03-13T13:34:29.182Z,99359.69
2024-03-13T13:37:30.750Z,99364.63
2024-03-13T13:40:32.280Z,99383.34
2024-03-13T13:43:34.225Z,99399.97
2024-03-13T13:46:38.343Z,99385.16
2024-03-13T13:49:40.210Z,99397.56
2024-03-13T13:52:41.737Z,99414.63
2024-03-13T13:55:43.265Z,99410.44
2024-03-13T13:58:44.783Z,99414.13
2024-03-13T14:01:46.369Z,99428.84
2024-03-13T14:04:47.997Z,99435.13
2024-03-13T14:07:49.524Z,99437.28
2024-03-13T14:10:51.044Z,99430.97
2024-03-13T14:13:52.624Z,99447.16
2024-03-13T14:16:56.572Z,99449.88
2024-03-13T14:20:00.502Z,99459.00
2024-03-13T14:23:02.058Z,99467.31
2024-03-13T14:26:03.742Z,99466.75
2024-03-13T14:29:05.400Z,99466.81
2024-03-13T14:32:06.960Z,99474.03
2024-03-13T14:35:09.559Z,99475.09
2024-03-13T14:38:11.311Z,99492.16
2024-03-13T14:41:12.800Z,99493.00
2024-03-13T14:44:14.370Z,99504.34
2024-03-13T14:47:15.854Z,99512.34
2024-03-13T14:50:17.422Z,99525.38
2024-03-13T14:53:18.963Z,99519.88
2024-03-13T14:56:20.537Z,99533.78
2024-03-13T14:59:24.379Z,99532.47
2024-03-13T15:02:27.670Z,99548.84
2024-03-13T15:05:33.521Z,99557.50
2024-03-13T15:08:38.011Z,99552.84
2024-03-13T15:11:39.637Z,99564.22
2024-03-13T15:14:41.215Z,99568.56
2024-03-13T15:17:46.420Z,99583.47
2024-03-13T15:20:48.486Z,99577.59
2024-03-13T15:23:50.055Z,99579.31
2024-03-13T15:26:51.542Z,99590.13
2024-03-13T15:29:53.206Z,99598.69
2024-03-13T15:32:54.764Z,99611.72
2024-03-13T15:35:57.526Z,99621.22
2024-03-13T15:38:59.113Z,99615.75
2024-03-13T15:42:00.794Z,99621.94
2024-03-13T15:45:02.413Z,99623.44
2024-03-13T15:48:04.334Z,99632.94
2024-03-13T15:51:06.047Z,99642.84
2024-03-13T15:54:07.669Z,99649.84
2024-03-13T15:57:09.551Z,99653.16
2024-03-13T16:00:11.498Z,99658.31
2024-03-13T16:03:13.113Z,99675.41
2024-03-13T16:06:14.717Z,99686.47
2024-03-13T16:09:16.344Z,99690.81
2024-03-13T16:12:17.976Z,99700.66
2024-03-13T16:15:19.588Z,99705.38
2024-03-13T16:18:21.293Z,99714.38
2024-03-13T16:21:22.988Z,99729.59
2024-03-13T16:24:24.672Z,99735.28
2024-03-13T16:27:26.275Z,99740.81
2024-03-13T16:30:28.271Z,99750.16
2024-03-13T16:33:30.042Z,99757.88
2024-03-13T16:36:32.987Z,99775.09
2024-03-13T16:39:34.488Z,99786.31
2024-03-13T16:42:36.190Z,99785.28
2024-03-13T16:45:38.744Z,99798.66
2024-03-13T16:48:41.407Z,99810.06
2024-03-13T16:51:43.036Z,99808.53
2024-03-13T16:54:44.497Z,99817.34
2024-03-13T16:57:46.039Z,99821.53
2024-03-13T17:00:47.602Z,99840.97
2024-03-13T17:03:52.354Z,99846.41
2024-03-13T17:07:00.771Z,99859.47
2024-03-13T17:10:02.345Z,99871.00
2024-03-13T17:13:04.074Z,99889.41
2024-03-13T17:16:09.723Z,99890.69
2024-03-13T17:19:12.248Z,99912.00
2024-03-13T17:22:13.832Z,99915.69
2024-03-13T17:25:15.362Z,99935.28
2024-03-13T17:28:16.886Z,99936.19
2024-03-13T17:31:18.341Z,99938.19
2024-03-13T17:34:19.836Z,99947.56
2024-03-13T17:37:27.830Z,99960.41
2024-03-13T17:40:29.371Z,99962.59
2024-03-13T17:43:30.907Z,99975.75
2024-03-13T17:46:32.409Z,99979.94
2024-03-13T17:49:34.279Z,99990.47
2024-03-13T17:52:41.278Z,99993.47
2024-03-13T17:55:42.945Z,100007.69
2024-03-13T17:58:44.572Z,100011.81
2024-03-13T18:01:47.134Z,100024.75
2024-03-13T18:04:52.949Z,100025.34
2024-03-13T18:08:00.820Z,100029.88
2024-03-13T18:11:02.297Z,100043.75
2024-03-13T18:14:03.780Z,100055.22
2024-03-13T18:17:05.481Z,100059.28
2024-03-13T18:20:14.011Z,100061.25
2024-03-13T18:23:15.553Z,100063.41
2024-03-13T18:26:17.347Z,100074.63
2024-03-13T18:29:18.879Z,100078.63
2024-03-13T18:32:20.456Z,100083.97
2024-03-13T18:35:26.415Z,100090.59
2024-03-13T18:38:28.918Z,100090.59
2024-03-13T18:41:30.410Z,100101.16
2024-03-13T18:44:32.057Z,100102.47
2024-03-13T18:47:33.590Z,100112.00
2024-03-13T18:50:38.145Z,100129.91
2024-03-13T18:53:44.115Z,100136.66
2024-03-13T18:56:45.797Z,100140.88
2024-03-13T18:59:47.431Z,100154.69
2024-03-13T19:02:49.055Z,100168.75
2024-03-13T19:05:53.397Z,100176.38
2024-03-13T19:08:58.294Z,100186.25
2024-03-13T19:12:02.668Z,100183.59
2024-03-13T19:15:04.584Z,100195.69
2024-03-13T19:18:14.797Z,100192.72
2024-03-13T19:21:17.013Z,100195.41
2024-03-13T19:24:21.729Z,100202.06
2024-03-13T19:27:23.409Z,100205.56
2024-03-13T19:30:24.989Z,100213.44
2024-03-13T19:33:26.542Z,100211.34
2024-03-13T19:36:34.631Z,100214.03
2024-03-13T19:39:36.160Z,100222.75
2024-03-13T19:42:38.701Z,100223.88
2024-03-13T19:45:40.244Z,100222.88
2024-03-13T19:48:41.817Z,100222.47
2024-03-13T19:51:43.469Z,100231.66
2024-03-13T19:54:45.072Z,100232.66
2024-03-13T19:57:46.715Z,100236.16
2024-03-13T20:00:48.352Z,100234.19
2024-03-13T20:03:49.939Z,100245.56
2024-03-13T20:06:51.386Z,100246.09
2024-03-13T20:09:56.746Z,100239.53
2024-03-13T20:12:58.373Z,100238.66
2024-03-13T20:16:01.049Z,100239.38
2024-03-13T20:19:02.679Z,100237.25
2024-03-13T20:22:08.312Z,100250.31
2024-03-13T20:25:16.909Z,100236.41
2024-03-13T20:28:18.416Z,100228.84
2024-03-13T20:31:20.019Z,100239.69
2024-03-13T20:34:21.497Z,100238.00
2024-03-13T20:37:26.364Z,100229.97
2024-03-13T20:40:32.347Z,100237.69
2024-03-13T20:43:33.854Z,100228.13
2024-03-13T20:46:35.372Z,100235.19
2024-03-13T20:49:36.939Z,100233.19
2024-03-13T20:52:38.485Z,100244.28
2024-03-13T20:55:46.989Z,100238.78
2024-03-13T20:58:48.464Z,100241.16
2024-03-13T21:01:50.174Z,100241.16
2024-03-13T21:04:51.663Z,100232.34
2024-03-13T21:07:56.349Z,100230.50
2024-03-13T21:10:57.977Z,100221.50
2024-03-13T21:13:59.628Z,100231.75
2024-03-13T21:17:03.825Z,100223.88
2024-03-13T21:20:05.799Z,100234.59
2024-03-13T21:23:07.456Z,100227.38
2024-03-13T21:26:15.959Z,100220.22
2024-03-13T21:29:17.424Z,100220.91
2024-03-13T21:32:18.961Z,100215.16
2024-03-13T21:35:20.497Z,100216.69
2024-03-13T21:38:22.087Z,100206.84
2024-03-13T21:41:26.625Z,100193.94
2024-03-13T21:44:30.233Z,100200.94
2024-03-13T21:47:31.780Z,100200.94
2024-03-13T21:50:33.542Z,100193.63
2024-03-13T21:53:38.392Z,100197.97
2024-03-13T21:56:49.214Z,100186.31
2024-03-13T21:59:50.821Z,100193.19
2024-03-13T22:02:52.451Z,100180.81
2024-03-13T22:05:54.162Z,100181.53
2024-03-13T22:09:02.719Z,100173.34
2024-03-13T22:12:04.420Z,100169.81
2024-03-13T22:15:06.361Z,100162.66
2024-03-13T22:18:08.204Z,100159.28
2024-03-13T22:21:09.872Z,100152.41
2024-03-13T22:24:11.599Z,100151.41
2024-03-13T22:27:13.317Z,100142.41
2024-03-13T22:30:14.935Z,100131.84
2024-03-13T22:33:16.642Z,100133.81
2024-03-13T22:36:19.361Z,100125.69
2024-03-13T22:39:24.448Z,100120.34
2024-03-13T22:42:34.080Z,100115.97
2024-03-13T22:45:35.682Z,100104.06
2024-03-13T22:48:37.293Z,100104.88
2024-03-13T22:51:38.937Z,100098.56
2024-03-13T22:54:40.399Z,100091.47
2024-03-13T22:57:44.968Z,100092.13
2024-03-13T23:00:46.436Z,100094.13
2024-03-13T23:03:48.023Z,100083.38
2024-03-13T23:06:49.481Z,100075.50
2024-03-13T23:09:54.547Z,100069.47
2024-03-13T23:13:02.175Z,100069.47
2024-03-13T23:16:03.814Z,100074.50
2024-03-13T23:19:07.960Z,100075.91
2024-03-13T23:22:09.540Z,100078.56
2024-03-13T23:25:12.055Z,100070.09
2024-03-13T23:28:13.589Z,100058.09
2024-03-13T23:31:15.133Z,100057.94
2024-03-13T23:34:16.737Z,100050.22
2024-03-13T23:37:19.235Z,100046.84
2024-03-13T23:40:24.678Z,100040.38
2024-03-13T23:43:29.542Z,100031.69
2024-03-13T23:46:31.041Z,100022.97
2024-03-13T23:49:32.552Z,100015.25
2024-03-13T23:52:34.000Z,100006.78
2024-03-13T23:55:35.470Z,99999.06
2024-03-13T23:58:40.518Z,99985.56
